Time;durP1;ratioP1;P1;durP2;ratioP2;P2;SDS_P1;SDS_P2;PMS_P1;PMS_P2;Temp;Humidity;BMP_temperature;BMP_pressure;BME280_temperature;BME280_humidity;BME280_pressure;Samples;Min_cycle;Max_cycle;Signal;HPM_P1;HPM_P2
2022/07/08 00:01:44;;;;;;;5.70;1.50;;;18.70;85.50;;;;;;4998716;28;20456;-80
2022/07/08 00:04:11;;;;;;;4.23;1.60;;;18.60;85.60;;;;;;4998526;28;20489;-82
2022/07/08 00:06:37;;;;;;;2.70;1.40;;;18.60;86.00;;;;;;5000087;28;20501;-81
2022/07/08 00:09:05;;;;;;;3.07;1.20;;;18.50;86.40;;;;;;4991097;28;20557;-81
2022/07/08 00:11:31;;;;;;;3.23;1.50;;;18.50;86.90;;;;;;4997093;28;20514;-81
2022/07/08 00:13:58;;;;;;;2.70;1.53;;;18.40;87.40;;;;;;4987945;28;20921;-80
2022/07/08 00:16:24;;;;;;;2.60;1.93;;;18.40;88.30;;;;;;4996550;28;20466;-81
2022/07/08 00:18:51;;;;;;;5.37;1.70;;;18.50;87.80;;;;;;4987236;28;20511;-80
2022/07/08 00:21:18;;;;;;;4.10;2.10;;;18.50;88.10;;;;;;4995493;28;20459;-80
2022/07/08 00:23:45;;;;;;;2.70;2.10;;;18.40;88.10;;;;;;4989292;28;20457;-81
2022/07/08 00:26:12;;;;;;;4.83;2.60;;;18.40;88.40;;;;;;4991413;28;20479;-80
2022/07/08 00:28:38;;;;;;;6.07;1.87;;;18.40;88.70;;;;;;4991685;28;20455;-81
2022/07/08 00:31:05;;;;;;;2.93;1.43;;;18.40;88.80;;;;;;4992505;28;20513;-81
2022/07/08 00:33:32;;;;;;;2.77;1.43;;;18.40;88.80;;;;;;5002343;28;20462;-80
2022/07/08 00:35:58;;;;;;;3.23;1.57;;;18.50;89.10;;;;;;5010199;28;20453;-79
2022/07/08 00:38:25;;;;;;;5.17;1.70;;;18.40;89.10;;;;;;5006138;28;20470;-79
2022/07/08 00:40:52;;;;;;;3.13;1.77;;;18.50;89.50;;;;;;5006201;28;20894;-82
2022/07/08 00:43:38;;;;;;;3.63;1.43;;;18.40;89.30;;;;;;5005064;28;20453;-81
2022/07/08 00:46:05;;;;;;;3.10;1.50;;;18.40;89.60;;;;;;4999379;28;20458;-82
2022/07/08 00:48:32;;;;;;;6.50;1.60;;;18.40;89.90;;;;;;4987620;28;20471;-79
2022/07/08 00:51:01;;;;;;;5.73;2.23;;;18.30;90.00;;;;;;4998374;28;20458;-80
2022/07/08 00:53:29;;;;;;;5.43;1.80;;;18.30;90.10;;;;;;4986509;28;20461;-81
2022/07/08 00:55:58;;;;;;;5.60;2.10;;;18.30;90.10;;;;;;4986541;28;20495;-81
2022/07/08 00:58:26;;;;;;;5.00;2.33;;;18.30;90.20;;;;;;4989203;28;20502;-82
2022/07/08 01:00:53;;;;;;;2.97;2.07;;;18.30;90.30;;;;;;5009878;28;20451;-80
2022/07/08 01:03:20;;;;;;;5.53;2.37;;;18.40;90.30;;;;;;4991548;28;20463;-81
2022/07/08 01:05:47;;;;;;;5.57;2.10;;;18.40;90.20;;;;;;4996924;28;20458;-81
2022/07/08 01:08:14;;;;;;;3.47;1.90;;;18.30;90.20;;;;;;4988019;28;20496;-80
2022/07/08 01:10:40;;;;;;;4.23;1.80;;;18.40;90.30;;;;;;4989781;28;20454;-81
2022/07/08 01:13:07;;;;;;;3.10;1.60;;;18.40;90.30;;;;;;5000779;28;20455;-81
2022/07/08 01:15:34;;;;;;;4.53;1.77;;;18.40;90.40;;;;;;5005959;28;20460;-81
2022/07/08 01:18:01;;;;;;;4.70;2.00;;;18.40;90.40;;;;;;4991823;28;20501;-80
2022/07/08 01:20:31;;;;;;;8.07;2.37;;;18.40;90.40;;;;;;4993148;28;20469;-81
2022/07/08 01:22:58;;;;;;;5.00;2.00;;;18.30;90.50;;;;;;4998520;28;20474;-81
2022/07/08 01:25:25;;;;;;;4.33;1.70;;;18.30;90.70;;;;;;5002671;28;20451;-80
2022/07/08 01:27:52;;;;;;;5.87;2.47;;;18.10;90.90;;;;;;5006000;28;20564;-81
2022/07/08 01:30:18;;;;;;;3.53;1.83;;;18.10;91.20;;;;;;5014245;28;20457;-81
2022/07/08 01:32:46;;;;;;;5.40;1.70;;;18.00;91.40;;;;;;5004338;28;20902;-81
2022/07/08 01:35:12;;;;;;;4.90;1.83;;;18.00;92.00;;;;;;5001282;28;20469;-81
2022/07/08 01:37:39;;;;;;;3.80;1.77;;;18.00;91.80;;;;;;4993664;28;20486;-80
2022/07/08 01:40:07;;;;;;;4.73;1.97;;;18.00;91.90;;;;;;4998075;28;20545;-81
2022/07/08 01:42:34;;;;;;;4.87;1.83;;;18.10;91.90;;;;;;4996573;28;20458;-78
2022/07/08 01:45:01;;;;;;;4.30;2.23;;;18.10;91.90;;;;;;4992962;28;20444;-78
2022/07/08 01:47:27;;;;;;;5.67;2.07;;;18.00;91.90;;;;;;4992721;28;20479;-80
2022/07/08 01:49:54;;;;;;;5.90;1.80;;;18.00;92.00;;;;;;4987240;28;20464;-81
2022/07/08 01:52:21;;;;;;;4.10;1.80;;;18.00;92.20;;;;;;4998635;28;20481;-80
2022/07/08 01:54:47;;;;;;;7.00;2.03;;;18.00;92.40;;;;;;4992912;28;20466;-80
2022/07/08 01:57:14;;;;;;;5.63;2.10;;;18.00;92.50;;;;;;4988829;28;20479;-82
2022/07/08 01:59:46;;;;;;;6.87;2.43;;;17.90;92.60;;;;;;4993246;28;20474;-81
2022/07/08 02:02:14;;;;;;;5.33;2.03;;;17.90;92.70;;;;;;4992220;28;20451;-82
2022/07/08 02:04:41;;;;;;;5.13;1.90;;;17.80;92.80;;;;;;4990677;28;20458;-81
2022/07/08 02:07:07;;;;;;;4.07;1.60;;;17.80;93.10;;;;;;4990040;28;21018;-81
2022/07/08 02:09:35;;;;;;;5.10;2.33;;;17.80;93.10;;;;;;4997813;28;20458;-81
2022/07/08 02:12:20;;;;;;;6.50;2.60;;;17.80;93.20;;;;;;4996445;28;20451;-80
2022/07/08 02:15:01;;;;;;;8.47;2.73;;;17.80;93.20;;;;;;4989382;28;20828;-81
2022/07/08 02:17:31;;;;;;;2.90;1.50;;;17.80;93.30;;;;;;4992591;28;20827;-82
2022/07/08 02:19:58;;;;;;;5.30;1.97;;;17.80;93.40;;;;;;4989059;28;20570;-81
2022/07/08 02:22:25;;;;;;;2.97;1.73;;;17.80;93.50;;;;;;4989612;28;20481;-81
2022/07/08 02:24:52;;;;;;;3.83;1.80;;;17.80;93.50;;;;;;4989907;28;20463;-80
2022/07/08 02:27:19;;;;;;;3.63;1.70;;;17.80;93.50;;;;;;4987604;28;20482;-82
2022/07/08 02:29:46;;;;;;;4.30;2.10;;;17.80;93.50;;;;;;4993592;28;20459;-82
2022/07/08 02:32:13;;;;;;;3.87;1.60;;;17.70;93.50;;;;;;4989136;28;20826;-82
2022/07/08 02:34:39;;;;;;;2.90;1.77;;;17.80;93.50;;;;;;4992705;28;20493;-81
2022/07/08 02:37:06;;;;;;;4.43;1.90;;;17.80;93.70;;;;;;4993385;28;20965;-80
2022/07/08 02:39:33;;;;;;;4.33;1.83;;;17.80;93.40;;;;;;4993828;28;20479;-81
2022/07/08 02:41:59;;;;;;;5.03;1.77;;;17.80;93.50;;;;;;4994218;28;20836;-79
2022/07/08 02:44:26;;;;;;;8.17;2.00;;;17.90;93.40;;;;;;4997419;28;20464;-79
2022/07/08 02:46:52;;;;;;;5.60;1.60;;;17.90;93.40;;;;;;4997711;28;20494;-79
2022/07/08 02:49:19;;;;;;;4.03;1.63;;;17.90;93.50;;;;;;4992465;28;20592;-79
2022/07/08 02:51:46;;;;;;;4.50;1.60;;;17.90;93.50;;;;;;5003026;28;20463;-79
2022/07/08 02:54:13;;;;;;;5.53;1.50;;;17.90;93.50;;;;;;4988575;28;20968;-82
2022/07/08 02:56:39;;;;;;;6.23;1.90;;;17.80;93.50;;;;;;4999065;28;20488;-79
2022/07/08 02:59:06;;;;;;;5.00;2.80;;;17.90;93.80;;;;;;4992661;28;20489;-80
2022/07/08 03:01:33;;;;;;;4.93;1.43;;;17.90;93.40;;;;;;4992472;28;20459;-79
2022/07/08 03:03:59;;;;;;;4.27;1.77;;;17.90;93.40;;;;;;4990621;28;20521;-79
2022/07/08 03:06:26;;;;;;;4.03;1.73;;;17.90;93.40;;;;;;4993056;28;20478;-79
2022/07/08 03:08:53;;;;;;;4.20;1.90;;;17.80;93.30;;;;;;4991586;28;20462;-79
2022/07/08 03:11:19;;;;;;;3.70;1.80;;;17.80;93.50;;;;;;4996836;28;20460;-81
2022/07/08 03:13:46;;;;;;;4.20;1.80;;;17.80;93.60;;;;;;4990750;28;20474;-81
2022/07/08 03:16:13;;;;;;;3.83;1.60;;;17.80;93.50;;;;;;4987486;28;20502;-80
2022/07/08 03:18:40;;;;;;;2.77;1.33;;;17.80;93.50;;;;;;4991155;28;21129;-81
2022/07/08 03:21:07;;;;;;;8.40;1.90;;;17.80;93.50;;;;;;4995568;28;20463;-81
2022/07/08 03:23:34;;;;;;;4.07;1.97;;;17.80;93.40;;;;;;4991327;28;20461;-81
2022/07/08 03:26:02;;;;;;;4.13;2.20;;;17.70;93.40;;;;;;4993229;28;20459;-81
2022/07/08 03:28:29;;;;;;;2.17;1.70;;;17.80;93.60;;;;;;4996063;28;20791;-81
2022/07/08 03:30:56;;;;;;;6.60;1.93;;;17.70;93.50;;;;;;4990165;28;20882;-81
2022/07/08 03:33:23;;;;;;;5.30;1.50;;;17.70;93.50;;;;;;4992191;28;20876;-81
2022/07/08 03:35:50;;;;;;;4.10;2.07;;;17.70;93.50;;;;;;4994288;28;20461;-82
2022/07/08 03:38:17;;;;;;;4.67;1.80;;;17.70;93.60;;;;;;4994278;28;20502;-82
2022/07/08 03:43:29;;;;;;;3.70;1.60;;;17.70;93.60;;;;;;4991589;28;20452;-81
2022/07/08 03:45:56;;;;;;;3.70;1.90;;;17.70;93.60;;;;;;5001730;28;20451;-82
2022/07/08 03:48:27;;;;;;;4.30;1.73;;;17.70;93.60;;;;;;5009186;28;20897;-81
2022/07/08 03:50:54;;;;;;;5.50;1.97;;;17.60;93.60;;;;;;4992912;28;21008;-81
2022/07/08 03:53:20;;;;;;;5.70;2.17;;;17.60;93.90;;;;;;5005229;28;20454;-79
2022/07/08 03:55:47;;;;;;;4.60;1.80;;;17.60;93.90;;;;;;4993986;28;20456;-80
2022/07/08 03:58:14;;;;;;;5.80;1.80;;;17.60;94.00;;;;;;4995525;28;20470;-80
2022/07/08 04:00:41;;;;;;;4.67;1.67;;;17.50;94.10;;;;;;5004877;28;20483;-80
2022/07/08 04:03:08;;;;;;;3.90;1.90;;;17.60;94.20;;;;;;5001478;28;20451;-80
2022/07/08 04:05:34;;;;;;;3.83;1.77;;;17.60;94.60;;;;;;5017843;28;20434;-81
2022/07/08 04:08:01;;;;;;;3.97;1.83;;;17.60;94.20;;;;;;5025938;28;20462;-80
2022/07/08 04:10:28;;;;;;;5.93;2.00;;;17.60;94.10;;;;;;5016561;28;20446;-80
2022/07/08 04:12:57;;;;;;;2.27;1.70;;;17.60;94.10;;;;;;5006728;28;20510;-80
2022/07/08 04:15:23;;;;;;;3.37;1.60;;;17.60;94.10;;;;;;5019538;28;20451;-81
2022/07/08 04:17:50;;;;;;;6.17;2.87;;;17.60;94.20;;;;;;5017053;28;20498;-80
2022/07/08 04:20:17;;;;;;;6.97;2.27;;;18.00;93.70;;;;;;5020143;28;20466;-79
2022/07/08 04:22:44;;;;;;;4.83;2.60;;;18.00;93.20;;;;;;5013187;28;20453;-80
2022/07/08 04:25:11;;;;;;;5.40;2.30;;;17.80;93.40;;;;;;5011509;28;20473;-80
2022/07/08 04:27:38;;;;;;;3.50;1.93;;;17.80;93.70;;;;;;5011005;28;20490;-80
2022/07/08 04:30:05;;;;;;;5.07;1.73;;;17.60;93.70;;;;;;5012056;28;20455;-80
2022/07/08 04:32:32;;;;;;;4.80;1.63;;;17.60;93.90;;;;;;5001101;28;20569;-83
2022/07/08 04:34:59;;;;;;;3.30;1.80;;;17.60;94.00;;;;;;4988517;28;20451;-79
2022/07/08 04:37:26;;;;;;;4.10;1.80;;;17.60;94.00;;;;;;4998013;28;21052;-79
2022/07/08 04:39:53;;;;;;;11.63;2.73;;;17.50;94.10;;;;;;4999605;28;20489;-78
2022/07/08 04:42:21;;;;;;;6.87;2.07;;;17.70;94.20;;;;;;4992786;28;20460;-79
2022/07/08 04:44:48;;;;;;;9.40;2.47;;;17.80;94.00;;;;;;4997887;28;20451;-79
2022/07/08 04:47:14;;;;;;;3.60;2.47;;;17.80;93.80;;;;;;4997008;28;20475;-78
2022/07/08 04:49:41;;;;;;;10.20;2.10;;;17.80;93.70;;;;;;5008300;28;20454;-82
2022/07/08 04:52:08;;;;;;;6.50;1.90;;;17.70;93.70;;;;;;5000883;28;20561;-80
2022/07/08 04:54:38;;;;;;;8.83;1.90;;;17.80;93.60;;;;;;4999688;28;20489;-78
2022/07/08 04:57:06;;;;;;;5.80;1.73;;;17.80;93.80;;;;;;4996414;28;20479;-79
2022/07/08 04:59:33;;;;;;;4.77;2.07;;;18.00;93.80;;;;;;4997126;28;20486;-78
2022/07/08 05:02:00;;;;;;;6.37;2.20;;;18.10;93.40;;;;;;4999094;28;20459;-80
2022/07/08 05:04:27;;;;;;;1.70;1.40;;;18.00;93.20;;;;;;5005203;28;20447;-80
2022/07/08 05:06:53;;;;;;;4.13;2.40;;;17.80;93.30;;;;;;5001484;28;20471;-80
2022/07/08 05:09:21;;;;;;;5.40;1.80;;;17.80;93.70;;;;;;5005755;28;20459;-79
2022/07/08 05:11:47;;;;;;;6.73;3.97;;;17.70;93.80;;;;;;5008989;28;20479;-80
2022/07/08 05:14:14;;;;;;;4.87;2.20;;;17.70;93.90;;;;;;5019907;28;20809;-82
2022/07/08 05:16:41;;;;;;;4.10;1.80;;;17.70;93.90;;;;;;5016856;28;20475;-80
2022/07/08 05:19:09;;;;;;;3.47;1.80;;;17.70;94.00;;;;;;5016578;28;20490;-79
2022/07/08 05:21:37;;;;;;;9.20;2.27;;;17.70;94.00;;;;;;4998157;28;20457;-79
2022/07/08 05:24:05;;;;;;;5.70;2.20;;;17.80;93.90;;;;;;4993934;28;20463;-79
2022/07/08 05:26:32;;;;;;;3.47;1.87;;;17.70;93.90;;;;;;4989065;28;20498;-78
2022/07/08 05:29:00;;;;;;;5.60;2.53;;;17.60;93.90;;;;;;4994150;28;20455;-82
2022/07/08 05:31:26;;;;;;;4.10;2.57;;;17.70;94.00;;;;;;5001881;28;20513;-80
2022/07/08 05:33:53;;;;;;;5.30;2.30;;;17.60;94.10;;;;;;4986355;28;20469;-81
2022/07/08 05:36:20;;;;;;;4.40;2.30;;;17.60;94.30;;;;;;4997746;28;20490;-82
2022/07/08 05:38:47;;;;;;;4.53;2.07;;;17.60;94.20;;;;;;5004222;28;20466;-80
2022/07/08 05:41:13;;;;;;;9.17;2.30;;;17.60;94.30;;;;;;4988595;28;20479;-79
2022/07/08 05:43:40;;;;;;;6.13;2.67;;;18.00;94.20;;;;;;4992059;28;20454;-80
2022/07/08 05:46:07;;;;;;;3.67;1.67;;;18.20;93.40;;;;;;4989853;28;20462;-80
2022/07/08 05:48:34;;;;;;;7.03;2.03;;;18.10;93.20;;;;;;4992372;28;20454;-78
2022/07/08 05:51:00;;;;;;;3.93;1.90;;;17.90;93.50;;;;;;4987921;28;20461;-82
2022/07/08 05:53:27;;;;;;;4.40;2.20;;;17.90;93.90;;;;;;4995419;28;20556;-80
2022/07/08 05:55:54;;;;;;;4.00;2.20;;;17.90;94.00;;;;;;4989759;28;20455;-83
2022/07/08 05:58:20;;;;;;;5.40;2.60;;;17.90;93.90;;;;;;4997351;28;20471;-81
2022/07/08 06:00:47;;;;;;;14.83;2.40;;;17.90;93.90;;;;;;4992561;28;20493;-83
2022/07/08 06:03:14;;;;;;;7.93;2.10;;;17.90;93.80;;;;;;4993629;28;20840;-81
2022/07/08 06:05:40;;;;;;;4.60;1.90;;;17.90;93.70;;;;;;4993901;28;20794;-81
2022/07/08 06:08:07;;;;;;;6.67;2.60;;;18.00;93.60;;;;;;4991921;28;20475;-80
2022/07/08 06:10:34;;;;;;;9.37;3.10;;;17.90;93.60;;;;;;4989696;28;20488;-81
2022/07/08 06:13:01;;;;;;;3.80;1.90;;;18.00;93.70;;;;;;4989369;28;20510;-81
2022/07/08 06:15:28;;;;;;;5.93;2.60;;;18.00;93.60;;;;;;4987204;28;20462;-81
2022/07/08 06:17:55;;;;;;;2.83;2.10;;;18.00;93.70;;;;;;4991705;28;20483;-80
2022/07/08 06:20:22;;;;;;;5.30;2.57;;;18.10;93.80;;;;;;4984638;28;21023;-80
2022/07/08 06:22:50;;;;;;;2.20;2.00;;;18.10;93.60;;;;;;4983952;28;20534;-81
2022/07/08 06:25:18;;;;;;;4.80;2.30;;;18.10;93.50;;;;;;4991487;28;20462;-82
2022/07/08 06:27:44;;;;;;;5.10;2.20;;;18.20;93.50;;;;;;4986771;28;20483;-81
2022/07/08 06:30:13;;;;;;;4.70;2.33;;;18.20;93.40;;;;;;4991620;28;23093;-83
2022/07/08 06:32:39;;;;;;;5.53;2.10;;;18.30;93.30;;;;;;4997105;28;20454;-81
2022/07/08 06:35:07;;;;;;;5.57;2.43;;;18.50;93.00;;;;;;4996815;28;20455;-83
2022/07/08 06:37:33;;;;;;;4.10;2.10;;;18.60;92.50;;;;;;4987104;28;20514;-82
2022/07/08 06:40:01;;;;;;;6.83;2.63;;;18.60;92.00;;;;;;4994066;28;20533;-83
2022/07/08 06:42:28;;;;;;;4.63;1.87;;;18.60;92.00;;;;;;4992506;28;20458;-80
2022/07/08 06:44:57;;;;;;;7.13;2.80;;;18.80;91.20;;;;;;4988928;28;20460;-81
2022/07/08 06:47:24;;;;;;;6.53;2.30;;;19.20;89.90;;;;;;5001006;28;20475;-82
2022/07/08 06:49:53;;;;;;;4.70;2.13;;;19.20;89.90;;;;;;4992927;28;20944;-82
2022/07/08 06:52:19;;;;;;;3.90;1.90;;;19.10;89.20;;;;;;4989390;28;20467;-82
2022/07/08 06:54:47;;;;;;;5.70;1.93;;;18.90;89.80;;;;;;4994215;28;20452;-82
2022/07/08 06:57:15;;;;;;;5.57;1.70;;;19.20;88.70;;;;;;4996397;28;20528;-82
2022/07/08 06:59:42;;;;;;;4.00;2.53;;;19.00;89.20;;;;;;4996152;28;20496;-82
2022/07/08 07:02:28;;;;;;;6.43;3.80;;;19.10;89.30;;;;;;5013519;28;20446;-81
2022/07/08 07:04:55;;;;;;;4.30;2.40;;;19.70;83.70;;;;;;5006826;28;20488;-82
2022/07/08 07:07:22;;;;;;;6.03;3.00;;;19.60;84.40;;;;;;5004917;28;20479;-82
2022/07/08 07:09:48;;;;;;;6.20;2.90;;;19.40;84.50;;;;;;5006523;28;20835;-81
2022/07/08 07:12:15;;;;;;;6.30;2.63;;;19.80;84.40;;;;;;4996174;28;20467;-81
2022/07/08 07:14:42;;;;;;;8.37;2.93;;;20.30;81.10;;;;;;4997903;28;20484;-81
2022/07/08 07:17:09;;;;;;;6.70;3.17;;;20.30;80.60;;;;;;4993622;28;20483;-82
2022/07/08 07:19:36;;;;;;;5.60;3.17;;;20.30;81.30;;;;;;5012081;28;20458;-81
2022/07/08 07:22:03;;;;;;;4.60;2.70;;;20.20;82.10;;;;;;4997739;28;20510;-82
2022/07/08 07:24:30;;;;;;;6.67;3.10;;;20.40;82.60;;;;;;4986462;28;20475;-80
2022/07/08 07:26:57;;;;;;;6.27;2.80;;;20.30;83.10;;;;;;4993062;28;20487;-81
2022/07/08 07:29:24;;;;;;;5.60;2.17;;;20.20;83.40;;;;;;4994019;28;20477;-81
2022/07/08 07:31:51;;;;;;;8.63;2.40;;;20.10;83.60;;;;;;4986146;28;20463;-81
2022/07/08 07:34:17;;;;;;;3.87;1.87;;;19.90;84.30;;;;;;4992588;28;20836;-79
2022/07/08 07:36:44;;;;;;;3.63;3.10;;;19.70;85.50;;;;;;5000399;28;20506;-81
2022/07/08 07:39:11;;;;;;;5.07;2.30;;;19.70;85.30;;;;;;4986827;28;20976;-81
2022/07/08 07:41:38;;;;;;;3.73;3.30;;;19.50;85.20;;;;;;4988964;28;20496;-81
2022/07/08 07:44:06;;;;;;;5.30;3.20;;;19.50;85.80;;;;;;4995899;28;20478;-81
2022/07/08 07:46:32;;;;;;;3.87;3.10;;;19.40;85.60;;;;;;4992710;28;20483;-81
2022/07/08 07:49:00;;;;;;;4.10;2.23;;;19.30;85.90;;;;;;4991989;28;20478;-81
2022/07/08 07:51:27;;;;;;;4.50;2.87;;;19.10;86.20;;;;;;4996697;28;20467;-80
2022/07/08 07:53:54;;;;;;;3.20;2.60;;;19.00;86.80;;;;;;4994948;28;20459;-80
2022/07/08 07:56:23;;;;;;;3.80;2.60;;;19.00;86.00;;;;;;4997757;28;21165;-81
2022/07/08 07:58:49;;;;;;;3.20;2.87;;;19.10;85.70;;;;;;5000744;28;20462;-81
2022/07/08 08:01:16;;;;;;;5.77;2.53;;;19.40;85.10;;;;;;5008699;28;20484;-79
2022/07/08 08:03:43;;;;;;;6.03;2.97;;;19.50;84.20;;;;;;5009772;28;20454;-82
2022/07/08 08:06:10;;;;;;;8.60;2.53;;;19.50;84.00;;;;;;5002250;28;20546;-81
2022/07/08 08:08:36;;;;;;;6.47;3.60;;;19.70;83.60;;;;;;5006728;28;20512;-82
2022/07/08 08:11:03;;;;;;;4.53;2.37;;;19.80;82.60;;;;;;5009928;28;20540;-81
2022/07/08 08:13:30;;;;;;;6.50;2.57;;;19.90;81.70;;;;;;5005977;28;20517;-81
2022/07/08 08:15:57;;;;;;;5.27;2.87;;;19.80;81.20;;;;;;5005945;28;20462;-80
2022/07/08 08:18:24;;;;;;;5.53;3.23;;;19.90;81.90;;;;;;5007096;28;20451;-81
2022/07/08 08:20:51;;;;;;;8.47;2.53;;;20.10;81.00;;;;;;5005012;28;20487;-82
2022/07/08 08:23:18;;;;;;;5.93;2.20;;;20.20;80.50;;;;;;5016245;28;20553;-81
2022/07/08 08:25:47;;;;;;;6.90;2.90;;;20.30;79.90;;;;;;5009629;28;20443;-81
2022/07/08 08:28:14;;;;;;;3.47;2.50;;;20.40;79.20;;;;;;5072211;22;20518;-81
2022/07/08 08:30:41;;;;;;;4.30;2.40;;;20.60;78.80;;;;;;5087287;28;20443;-79
2022/07/08 08:33:07;;;;;;;2.53;2.10;;;20.90;78.10;;;;;;5078587;28;20532;-81
2022/07/08 08:35:34;;;;;;;3.70;2.10;;;21.00;77.40;;;;;;5072597;28;20432;-82
2022/07/08 08:38:01;;;;;;;5.80;2.50;;;21.10;76.70;;;;;;5076074;28;20470;-81
2022/07/08 08:40:29;;;;;;;3.03;2.23;;;21.20;75.90;;;;;;5075243;28;20471;-81
2022/07/08 08:42:56;;;;;;;3.37;2.37;;;22.10;73.50;;;;;;5075066;28;20436;-83
2022/07/08 08:45:26;;;;;;;3.83;2.23;;;21.80;72.50;;;;;;5070175;28;20436;-82
2022/07/08 08:47:55;;;;;;;4.80;2.70;;;21.90;71.90;;;;;;5069438;28;20492;-81
2022/07/08 08:53:13;;;;;;;3.57;2.23;;;21.60;70.60;;;;;;5054185;28;20440;-82
2022/07/08 08:55:39;;;;;;;4.07;2.90;;;21.50;71.30;;;;;;5058887;28;20846;-80
2022/07/08 08:58:07;;;;;;;3.13;2.57;;;22.10;71.20;;;;;;5048874;28;20499;-80
2022/07/08 09:00:34;;;;;;;3.50;2.07;;;23.20;67.60;;;;;;5052352;28;20485;-82
2022/07/08 09:03:02;;;;;;;3.33;2.33;;;22.90;65.30;;;;;;5054773;28;20488;-80
2022/07/08 09:05:30;;;;;;;3.70;1.93;;;22.70;65.80;;;;;;5060078;28;20440;-81
2022/07/08 09:07:57;;;;;;;4.33;2.40;;;22.70;65.50;;;;;;5053762;28;20482;-80
2022/07/08 09:10:24;;;;;;;123.93;20.73;;;23.20;64.20;;;;;;5051519;28;20856;-82
2022/07/08 09:13:10;;;;;;;10.93;3.50;;;23.20;63.20;;;;;;5057140;28;20451;-81
2022/07/08 09:15:40;;;;;;;3.90;1.57;;;23.20;63.50;;;;;;5051857;28;20464;-80
2022/07/08 09:18:11;;;;;;;2.97;1.70;;;23.10;63.80;;;;;;5054254;28;20468;-81
2022/07/08 09:20:39;;;;;;;3.57;1.87;;;22.90;64.50;;;;;;5050364;28;21024;-80
2022/07/08 09:23:12;;;;;;;5.40;1.93;;;23.10;64.80;;;;;;5051878;28;21020;-82
2022/07/08 09:25:39;;;;;;;3.40;2.17;;;23.80;62.40;;;;;;5050544;28;20465;-81
2022/07/08 09:28:06;;;;;;;3.10;2.17;;;23.90;61.10;;;;;;5055045;28;20476;-82
2022/07/08 09:30:33;;;;;;;2.40;2.10;;;23.90;61.60;;;;;;5052240;28;20532;-81
2022/07/08 09:33:02;;;;;;;4.00;2.40;;;25.00;59.70;;;;;;5055004;28;20978;-82
2022/07/08 09:35:36;;;;;;;6.80;2.43;;;25.00;58.10;;;;;;5052104;28;20465;-80
2022/07/08 09:38:08;;;;;;;7.60;2.50;;;24.70;58.60;;;;;;5062322;28;20477;-80
2022/07/08 09:40:36;;;;;;;4.77;2.70;;;24.80;58.10;;;;;;5039885;28;20488;-81
2022/07/08 09:43:10;;;;;;;4.40;2.53;;;25.20;57.30;;;;;;5052313;28;20448;-81
2022/07/08 09:45:38;;;;;;;7.70;2.57;;;26.00;55.10;;;;;;5052862;28;20504;-81
2022/07/08 09:48:07;;;;;;;5.10;2.50;;;26.70;54.50;;;;;;5046010;28;20497;-81
2022/07/08 09:50:42;;;;;;;5.13;2.77;;;29.40;50.30;;;;;;5063838;28;20834;-81
2022/07/08 09:53:28;;;;;;;4.93;2.47;;;30.20;47.00;;;;;;5047459;28;20888;-80
2022/07/08 09:55:56;;;;;;;3.80;2.40;;;30.00;45.50;;;;;;5049576;28;20524;-79
2022/07/08 09:58:26;;;;;;;5.77;2.93;;;29.10;46.10;;;;;;5051298;28;20498;-81
2022/07/08 10:00:53;;;;;;;3.47;2.43;;;28.20;48.40;;;;;;5047991;28;20519;-80
2022/07/08 10:03:21;;;;;;;2.60;2.20;;;28.20;48.80;;;;;;5052601;28;20452;-80
2022/07/08 10:05:49;;;;;;;4.57;1.97;;;27.80;48.40;;;;;;5047831;28;20451;-81
2022/07/08 10:08:17;;;;;;;6.13;2.13;;;27.70;48.80;;;;;;5048438;28;20475;-82
2022/07/08 10:10:45;;;;;;;3.80;1.90;;;27.60;48.90;;;;;;5052296;28;20934;-81
2022/07/08 10:13:14;;;;;;;4.20;2.27;;;26.40;50.50;;;;;;5053196;28;20463;-80
2022/07/08 10:15:43;;;;;;;6.43;3.30;;;26.20;51.80;;;;;;5054772;28;20631;-83
2022/07/08 10:18:18;;;;;;;3.97;2.50;;;26.10;51.10;;;;;;5042515;28;20473;-82
2022/07/08 10:20:49;;;;;;;3.57;2.37;;;25.90;51.90;;;;;;5045960;28;20495;-80
2022/07/08 10:23:32;;;;;;;3.20;2.30;;;26.30;51.50;;;;;;5047817;28;20479;-82
2022/07/08 10:26:00;;;;;;;4.13;1.97;;;26.90;50.50;;;;;;5049147;28;20451;-80
2022/07/08 10:28:34;;;;;;;6.17;2.00;;;26.80;50.20;;;;;;5044114;28;20522;-81
2022/07/08 10:31:01;;;;;;;5.43;1.80;;;26.70;50.50;;;;;;5064492;28;20467;-81
2022/07/08 10:33:29;;;;;;;3.40;1.70;;;26.60;50.80;;;;;;5054666;28;20559;-79
2022/07/08 10:36:09;;;;;;;3.23;1.93;;;26.80;50.60;;;;;;5051185;28;20463;-81
2022/07/08 10:38:43;;;;;;;3.27;1.67;;;27.60;50.10;;;;;;5050954;28;20452;-79
2022/07/08 10:41:11;;;;;;;3.03;1.73;;;27.90;49.60;;;;;;5052251;28;21177;-80
2022/07/08 10:43:52;;;;;;;4.50;1.87;;;28.10;48.50;;;;;;5052602;28;20456;-82
2022/07/08 10:46:21;;;;;;;2.97;1.83;;;27.30;49.70;;;;;;5051698;28;20469;-83
2022/07/08 10:48:50;;;;;;;4.97;2.17;;;27.10;50.20;;;;;;5055533;28;20968;-81
2022/07/08 10:51:20;;;;;;;3.10;1.70;;;28.60;49.90;;;;;;5054275;28;20816;-81
2022/07/08 10:54:05;;;;;;;3.10;2.57;;;28.60;47.90;;;;;;5057701;28;20440;-79
2022/07/08 10:56:56;;;;;;;4.30;2.47;;;28.60;48.20;;;;;;5052722;28;20476;-79
2022/07/08 10:59:28;;;;;;;4.17;2.40;;;29.90;46.10;;;;;;5054909;28;20491;-80
2022/07/08 11:02:15;;;;;;;8.13;2.30;;;29.50;45.00;;;;;;5057720;28;20476;-81
2022/07/08 11:04:47;;;;;;;2.67;1.77;;;28.30;47.10;;;;;;5050217;28;20506;-81
2022/07/08 11:09:54;;;;;;;4.20;2.00;;;27.60;48.60;;;;;;5055498;28;20456;-82
2022/07/08 11:12:27;;;;;;;2.13;1.50;;;27.30;49.70;;;;;;5056798;28;21231;-80
2022/07/08 11:14:57;;;;;;;3.53;1.80;;;27.90;49.80;;;;;;5066133;28;20436;-80
2022/07/08 11:17:29;;;;;;;6.07;2.03;;;28.90;47.60;;;;;;5052667;28;20496;-82
2022/07/08 11:19:58;;;;;;;5.90;1.83;;;28.60;47.10;;;;;;5058329;28;20954;-82
2022/07/08 11:22:26;;;;;;;2.10;1.53;;;27.70;48.70;;;;;;5055882;28;20487;-81
2022/07/08 11:24:54;;;;;;;1.73;1.57;;;27.20;49.70;;;;;;5055081;28;20453;-81
2022/07/08 11:27:24;;;;;;;4.67;2.13;;;27.10;51.20;;;;;;5066534;28;20476;-82
2022/07/08 11:29:53;;;;;;;5.10;1.90;;;27.40;50.70;;;;;;5053636;28;20520;-82
2022/07/08 11:32:22;;;;;;;4.13;1.80;;;27.70;49.90;;;;;;5036311;28;20634;-82
2022/07/08 11:34:50;;;;;;;3.80;1.70;;;29.00;48.60;;;;;;5055634;28;20452;-82
2022/07/08 11:37:18;;;;;;;2.43;1.83;;;29.70;46.90;;;;;;5057362;28;20556;-82
2022/07/08 11:39:46;;;;;;;4.77;1.90;;;30.80;44.60;;;;;;5051429;28;20479;-82
2022/07/08 11:42:14;;;;;;;5.83;2.33;;;29.50;45.70;;;;;;5059410;28;20468;-82
2022/07/08 11:44:42;;;;;;;5.70;2.20;;;29.30;46.30;;;;;;5059069;28;20448;-82
2022/07/08 11:47:12;;;;;;;7.40;2.20;;;28.40;47.30;;;;;;5057875;28;20480;-81
2022/07/08 11:49:42;;;;;;;5.47;3.13;;;27.70;48.50;;;;;;5053849;28;20455;-80
2022/07/08 11:52:10;;;;;;;2.70;1.77;;;27.60;49.40;;;;;;5052413;28;20460;-81
2022/07/08 11:54:37;;;;;;;4.13;1.90;;;26.90;50.10;;;;;;5055424;28;20534;-81
2022/07/08 11:57:05;;;;;;;2.83;1.77;;;26.90;50.80;;;;;;5054136;28;20472;-84
2022/07/08 11:59:33;;;;;;;5.10;1.90;;;27.20;51.20;;;;;;5052919;28;20456;-85
2022/07/08 12:02:04;;;;;;;4.20;1.70;;;28.20;49.50;;;;;;5051721;28;20515;-84
2022/07/08 12:04:31;;;;;;;2.20;1.63;;;28.90;47.70;;;;;;5043837;28;20473;-86
2022/07/08 12:07:01;;;;;;;4.40;1.83;;;28.70;48.00;;;;;;5047405;28;20500;-84
2022/07/08 12:09:29;;;;;;;3.10;1.40;;;28.60;47.80;;;;;;5052159;28;20539;-85
2022/07/08 12:11:59;;;;;;;3.17;1.63;;;28.50;48.10;;;;;;5050087;28;20551;-84
2022/07/08 12:14:33;;;;;;;1.90;1.57;;;28.60;47.90;;;;;;5049263;28;20468;-86
2022/07/08 12:17:01;;;;;;;3.67;1.33;;;28.70;48.00;;;;;;5048776;28;20503;-83
2022/07/08 12:19:33;;;;;;;3.47;1.67;;;29.00;47.20;;;;;;5054271;28;20486;-84
2022/07/08 12:22:07;;;;;;;3.50;1.50;;;29.00;47.20;;;;;;5051292;28;20504;-84
2022/07/08 12:24:41;;;;;;;3.20;2.30;;;28.90;47.10;;;;;;5065636;28;20522;-83
2022/07/08 12:27:32;;;;;;;4.80;1.57;;;28.70;47.50;;;;;;5099505;22;20483;-82
2022/07/08 12:34:35;;;;;;;5.30;1.30;;;28.20;48.30;;;;;;4989566;28;20466;-81
2022/07/08 12:37:42;;;;;;;3.10;1.60;;;27.50;49.60;;;;;;5042320;28;20476;-84
2022/07/08 12:45:19;;;;;;;;;;;;;;;;;;;;;
2022/07/08 12:48:03;;;;;;;2.13;1.50;;;27.30;50.90;;;;;;4924085;28;20564;-84
2022/07/08 12:50:32;;;;;;;4.93;1.47;;;27.20;51.10;;;;;;4973965;28;20471;-86
2022/07/08 12:53:03;;;;;;;3.47;1.73;;;27.10;51.20;;;;;;4972324;28;20515;-83
2022/07/08 12:55:43;;;;;;;4.47;1.63;;;26.90;51.80;;;;;;4975148;28;20460;-82
2022/07/08 12:59:06;;;;;;;;;;;;;;;;;;;;;
2022/07/08 13:09:30;;;;;;;5.50;2.00;;;28.60;50.10;;;;;;4842402;29;20469;-83
2022/07/08 13:12:32;;;;;;;2.87;1.93;;;28.20;49.90;;;;;;4863791;29;20639;-82
2022/07/08 13:14:59;;;;;;;3.93;1.93;;;27.90;51.00;;;;;;4892470;29;20479;-81
2022/07/08 13:17:26;;;;;;;2.40;1.63;;;27.60;50.80;;;;;;4894288;29;20467;-82
2022/07/08 13:19:54;;;;;;;2.83;1.70;;;27.40;51.60;;;;;;4928328;28;20452;-82
2022/07/08 13:22:21;;;;;;;4.50;1.53;;;27.20;52.00;;;;;;4956191;28;20939;-82